Porthleven, United Kingdom
Current Conditions -  °F | °C
As of 9:50 PM on Thursday 18 Dec 2014 (Local Time) from EGDR Reporting Station
Drizzle Drizzle  
Wind Chill: 54°   Ceiling: 800
Heat Index: 54°   Visibility: 1.8mi
Dew Point: 52°   Wind: 21mph
Humidity: 94%   Direction: 240°WSW
Pressure: 29.97"   Gusts: 41mph
Location:  50.09°N, 5.32°W
Report Text: EGDR 182150Z 24018G36KT 3000 -DZ FEW001 SCT003 OVC008 12/11 Q1015 YLO2
Loading
Personal Weather Stations






























Interactive Weather Map New forecast layout! Learn more

10-Day Weather Forecast

Advertisements
Track Severe Weather on mobile